Airfield :
LOGIN :

Register | Disclaimer

   EN    FR    IT 

 










Legend :    VFR   Marginal VFR   IFR   Intensive IFR   Very Intensive IFR
Visi :
Ceiling :
>= 8 km
>= 3000ft
5 to 8 km
1000 to 3000 ft
1500m to 5 km
500 to 1000 ft
800 to 1500m
200 to 500 ft
< 800m
< 200 ft
Symbols :   Thunderstorms  Fog  Heavy snow  Heavy precipitations  Wind > 20 kt
SIGMETs :     Misc.  Thunderstorms  Icing  Turbulence  Mountain Waves  Volcanic Ashes







- Airport Elevation : 289 ft
- IATA code : ZAD


LDZD - Zadar

CURRENT METAR :
  • 281200Z 20016KT 150V250 9999 FEW025 SCT033 BKN045 17/13 Q1007 TEMPO RA

EXPIRED METARs :
  • 281130Z 15024G35KT 9999 FEW025 SCT040 BKN045 18/13 Q1007 BECMG 26014KT TEMPO RA
  • 281100Z 15029KT 9999 FEW040 SCT060 19/13 Q1007 TEMPO RA
  • 281030Z 15029KT 9999 FEW033 SCT060 19/12 Q1007 NOSIG
  • 281000Z 15024KT 9999 -RA FEW040 SCT060 17/13 Q1006 NOSIG
  • 280930Z 15026KT 120V180 9999 FEW040 SCT070 19/12 Q1007 TEMPO RA

TAF TAF LDZD
Valid from the 28 at 12:00 until the 29 at 12:00 UTC


281125Z 2812/2912 15024KT 9999 FEW040 SCT060 TX19/2812Z TN08/2804Z
TEMPO 2812/2814 15028G38KT
PROB30
TEMPO 2812/2815 24015KT 4000 RA
BECMG 2813/2815 28008KT
TEMPO 2815/2818 26008KT
BECMG 2817/2819 VRB02KT
BECMG 2908/2910 06012KT
No reported NOTAMs for that airfield.



MET'MAP, your aeronautical weather chart ! - Copyright ORBIFLY December 2007 - Disclaimer

ORBIFLY MET'MAP TEAM :

Programming & Development : Alexandra Zaïnal
Concept & Development : Baudouin d'Aumeries
Co-Development & Prog : Marc-Olivier Méhu
Technical & hardware support : Manuel Goepfert

Contact : metmap@orbifly.com




SOURCES & CREDITS :

   NOAA